Time;durP1;ratioP1;P1;durP2;ratioP2;P2;SDS_P1;SDS_P2;PMS_P1;PMS_P2;Temp;Humidity;BMP_temperature;BMP_pressure;BME280_temperature;BME280_humidity;BME280_pressure;Samples;Min_cycle;Max_cycle;Signal;HPM_P1;HPM_P2
2023/02/03 00:00:10;;;;;;;;;;;;;;;4.83;60.83;99906.97;5093349;28;19919;-40
2023/02/03 00:02:36;;;;;;;;;;;;;;;4.92;61.08;99926.28;5093397;28;20294;-41
2023/02/03 00:05:02;;;;;;;;;;;;;;;4.83;60.59;99922.78;5093350;28;19923;-41
2023/02/03 00:07:27;;;;;;;;;;;;;;;4.92;60.95;99918.38;5093228;28;20371;-41
2023/02/03 00:09:53;;;;;;;;;;;;;;;4.79;61.40;99904.81;5093669;28;19924;-41
2023/02/03 00:12:19;;;;;;;;;;;;;;;5.16;60.25;99898.25;5091963;28;20011;-41
2023/02/03 00:14:44;;;;;;;;;;;;;;;5.06;60.20;99901.06;5092946;28;19918;-41
2023/02/03 00:17:09;;;;;;;;;;;;;;;4.76;61.50;99895.44;5093187;28;19999;-41
2023/02/03 00:19:35;;;;;;;;;;;;;;;4.87;60.25;99908.31;5093076;28;19936;-41
2023/02/03 00:22:00;;;;;;;;;;;;;;;5.03;60.30;99917.22;5092969;28;20374;-41
2023/02/03 00:24:25;;;;;;;;;;;;;;;5.08;59.93;99920.19;5092905;28;19926;-41
2023/02/03 00:26:51;;;;;;;;;;;;;;;5.48;59.71;99908.00;5091611;28;19919;-41
2023/02/03 00:29:17;;;;;;;;;;;;;;;5.13;59.23;99907.34;5092641;28;20496;-41
2023/02/03 00:31:42;;;;;;;;;;;;;;;5.11;59.04;99919.06;5092742;28;20367;-41
2023/02/03 00:34:08;;;;;;;;;;;;;;;5.01;59.54;99912.13;5092807;28;19919;-41
2023/02/03 00:36:34;;;;;;;;;;;;;;;5.26;59.06;99915.59;5092950;28;19911;-41
2023/02/03 00:39:00;;;;;;;;;;;;;;;5.45;58.48;99914.44;5092579;28;19947;-41
2023/02/03 00:41:27;;;;;;;;;;;;;;;5.66;57.29;99913.09;5092609;28;19959;-44
2023/02/03 00:43:53;;;;;;;;;;;;;;;5.62;58.06;99922.34;5084056;28;19916;-41
2023/02/03 00:46:18;;;;;;;;;;;;;;;5.61;57.47;99918.06;5072255;28;19920;-41
2023/02/03 00:48:43;;;;;;;;;;;;;;;5.43;56.86;99915.59;5072379;28;20265;-41
2023/02/03 00:51:09;;;;;;;;;;;;;;;5.67;55.92;99917.38;5072089;28;19943;-41
2023/02/03 00:53:34;;;;;;;;;;;;;;;5.61;56.59;99931.25;5072189;28;19913;-41
2023/02/03 00:56:00;;;;;;;;;;;;;;;5.52;56.46;99930.44;5072203;28;19984;-40
2023/02/03 00:58:25;;;;;;;;;;;;;;;5.68;56.23;99934.88;5072110;28;20013;-41
2023/02/03 01:00:50;;;;;;;;;;;;;;;5.53;56.99;99928.63;5071917;28;20378;-41
2023/02/03 01:03:16;;;;;;;;;;;;;;;5.34;57.46;99949.06;5071648;28;19973;-41
2023/02/03 01:05:41;;;;;;;;;;;;;;;5.54;56.67;99959.28;5071980;28;19912;-40
2023/02/03 01:08:06;;;;;;;;;;;;;;;5.60;57.31;99945.47;5071707;28;19989;-41
2023/02/03 01:10:31;;;;;;;;;;;;;;;5.14;57.43;99955.66;5071931;28;19912;-41
2023/02/03 01:12:57;;;;;;;;;;;;;;;5.56;57.33;99946.75;5071513;28;19977;-41
2023/02/03 01:15:22;;;;;;;;;;;;;;;5.39;57.26;99943.31;5071459;28;19952;-41
2023/02/03 01:17:47;;;;;;;;;;;;;;;5.24;58.21;99943.13;5071400;28;20019;-41
2023/02/03 01:20:13;;;;;;;;;;;;;;;5.10;58.09;99934.03;5071145;28;19920;-41
2023/02/03 01:22:38;;;;;;;;;;;;;;;5.19;58.44;99940.16;5071386;28;20007;-41
2023/02/03 01:25:04;;;;;;;;;;;;;;;5.05;58.67;99933.72;5070972;28;19916;-41
2023/02/03 01:27:30;;;;;;;;;;;;;;;5.52;57.33;99934.88;5071421;28;20030;-41
2023/02/03 01:29:55;;;;;;;;;;;;;;;5.50;57.53;99942.97;5071435;28;19924;-41
2023/02/03 01:32:21;;;;;;;;;;;;;;;5.34;57.70;99950.91;5071418;28;20011;-41
2023/02/03 01:34:46;;;;;;;;;;;;;;;5.04;58.59;99947.88;5071153;28;19919;-41
2023/02/03 01:37:13;;;;;;;;;;;;;;;5.40;57.61;99951.03;5071347;28;19913;-40
2023/02/03 01:39:38;;;;;;;;;;;;;;;5.74;57.01;99955.31;5071489;28;19913;-41
2023/02/03 01:42:04;;;;;;;;;;;;;;;5.58;57.40;99950.91;5071010;28;20076;-41
2023/02/03 01:44:46;;;;;;;;;;;;;;;5.34;57.60;99970.19;5084299;28;19924;-41
2023/02/03 01:47:23;;;;;;;;;;;;;;;5.54;57.23;99964.56;5091415;28;19912;-42
2023/02/03 01:49:54;;;;;;;;;;;;;;;5.23;57.83;99957.31;5091583;28;19994;-41
2023/02/03 01:52:19;;;;;;;;;;;;;;;5.53;57.30;99945.28;5091309;28;19993;-41
2023/02/03 01:54:46;;;;;;;;;;;;;;;5.43;57.52;99966.56;5091231;28;20330;-42
2023/02/03 01:57:18;;;;;;;;;;;;;;;5.30;58.18;99958.31;5091471;28;19958;-42
2023/02/03 01:59:44;;;;;;;;;;;;;;;5.17;58.50;99963.25;5091284;28;20007;-42
2023/02/03 02:02:10;;;;;;;;;;;;;;;5.12;59.06;99970.81;5091045;28;19912;-41
2023/02/03 02:04:42;;;;;;;;;;;;;;;5.17;59.41;99971.16;5090852;28;19917;-41
2023/02/03 02:07:08;;;;;;;;;;;;;;;5.32;59.48;99976.63;5090910;28;19912;-42
2023/02/03 02:09:33;;;;;;;;;;;;;;;5.02;60.20;99994.72;5091159;28;19912;-41
2023/02/03 02:11:58;;;;;;;;;;;;;;;4.97;60.66;99995.19;5090906;28;19912;-42
2023/02/03 02:14:24;;;;;;;;;;;;;;;5.10;60.94;99986.81;5091045;28;19919;-41
2023/02/03 02:16:57;;;;;;;;;;;;;;;4.99;61.04;99992.38;5090967;28;20345;-40
2023/02/03 02:19:38;;;;;;;;;;;;;;;5.30;61.09;99989.97;5090786;28;19959;-42
2023/02/03 02:22:07;;;;;;;;;;;;;;;5.13;61.05;99997.03;5091024;28;19919;-42
2023/02/03 02:24:39;;;;;;;;;;;;;;;5.15;60.75;99996.88;5091104;28;19916;-42
2023/02/03 02:27:22;;;;;;;;;;;;;;;5.35;60.69;100003.53;5091247;28;19912;-42
2023/02/03 02:29:48;;;;;;;;;;;;;;;5.08;61.71;99992.25;5090754;28;20030;-41
2023/02/03 02:32:13;;;;;;;;;;;;;;;5.18;62.13;100000.03;5090857;28;20409;-42
2023/02/03 02:34:45;;;;;;;;;;;;;;;4.88;62.70;100010.16;5090955;28;19912;-41
2023/02/03 02:37:16;;;;;;;;;;;;;;;5.17;62.70;100013.38;5094270;28;19912;-41
2023/02/03 02:39:45;;;;;;;;;;;;;;;4.84;63.62;100008.03;5094785;28;20353;-42
2023/02/03 02:42:17;;;;;;;;;;;;;;;4.68;64.86;100022.78;5094834;28;20065;-42
2023/02/03 02:44:45;;;;;;;;;;;;;;;4.69;65.17;100023.63;5094826;28;19916;-42
2023/02/03 02:47:21;;;;;;;;;;;;;;;4.58;65.35;100027.34;5094814;28;19961;-41
2023/02/03 02:49:59;;;;;;;;;;;;;;;4.53;65.87;100015.63;5094747;28;19999;-42
2023/02/03 02:52:27;;;;;;;;;;;;;;;4.58;66.02;100023.88;5094623;28;19912;-41
2023/02/03 02:54:55;;;;;;;;;;;;;;;4.49;66.31;100028.28;5094484;28;20303;-42
2023/02/03 02:57:21;;;;;;;;;;;;;;;4.87;65.18;100034.06;5094508;28;20384;-42
2023/02/03 02:59:47;;;;;;;;;;;;;;;4.63;65.83;100027.69;5094416;28;19923;-41
2023/02/03 03:02:12;;;;;;;;;;;;;;;4.69;65.35;100029.69;5094607;28;19912;-41
2023/02/03 03:04:38;;;;;;;;;;;;;;;4.86;64.97;100040.31;5094239;28;19916;-41
2023/02/03 03:07:07;;;;;;;;;;;;;;;4.94;64.41;100042.16;5094458;28;19938;-41
2023/02/03 03:09:35;;;;;;;;;;;;;;;5.02;64.70;100040.38;5094465;28;19927;-41
2023/02/03 03:12:23;;;;;;;;;;;;;;;4.63;65.14;100038.25;5094330;28;19978;-42
2023/02/03 03:14:52;;;;;;;;;;;;;;;4.98;64.00;100038.22;5090809;28;19995;-41
2023/02/03 03:17:21;;;;;;;;;;;;;;;4.62;64.90;100026.03;5094229;28;20297;-41
2023/02/03 03:19:49;;;;;;;;;;;;;;;4.62;64.57;100027.84;5094131;28;19924;-41
2023/02/03 03:22:16;;;;;;;;;;;;;;;4.59;64.71;100036.06;5093986;28;19920;-42
2023/02/03 03:24:54;;;;;;;;;;;;;;;4.57;64.78;100036.25;5093928;28;19916;-42
2023/02/03 03:27:21;;;;;;;;;;;;;;;4.50;64.91;100040.50;5093756;28;19912;-42
2023/02/03 03:29:50;;;;;;;;;;;;;;;4.59;65.69;100039.56;5093765;28;20022;-41
2023/02/03 03:32:15;;;;;;;;;;;;;;;4.52;65.36;100046.44;5093708;28;19915;-42
2023/02/03 03:34:41;;;;;;;;;;;;;;;4.66;65.79;100060.81;5093438;28;19918;-41
2023/02/03 03:37:12;;;;;;;;;;;;;;;4.49;65.60;100050.22;5093778;28;20006;-42
2023/02/03 03:39:54;;;;;;;;;;;;;;;4.73;64.98;100058.41;5093626;28;19912;-42
2023/02/03 03:42:22;;;;;;;;;;;;;;;4.52;65.43;100053.53;5093617;28;19923;-42
2023/02/03 03:45:20;;;;;;;;;;;;;;;4.59;64.82;100070.34;5093325;28;19923;-42
2023/02/03 03:47:57;;;;;;;;;;;;;;;4.70;64.53;100059.53;5091778;28;20019;-41
2023/02/03 03:50:27;;;;;;;;;;;;;;;4.50;64.98;100062.38;5093417;28;19912;-41
2023/02/03 03:52:53;;;;;;;;;;;;;;;4.50;64.69;100056.31;5093517;28;19912;-41
2023/02/03 03:55:19;;;;;;;;;;;;;;;4.81;63.73;100053.16;5093368;28;19913;-42
2023/02/03 03:58:05;;;;;;;;;;;;;;;4.65;63.70;100057.38;5093345;28;20307;-41
2023/02/03 04:00:32;;;;;;;;;;;;;;;4.93;63.02;100061.59;5092999;28;20357;-41
2023/02/03 04:03:00;;;;;;;;;;;;;;;4.90;62.40;100068.84;5093307;28;19918;-42
2023/02/03 04:05:26;;;;;;;;;;;;;;;4.87;63.47;100076.25;5093520;28;19916;-42
2023/02/03 04:07:51;;;;;;;;;;;;;;;5.08;62.95;100091.66;5093066;28;20189;-41
2023/02/03 04:10:22;;;;;;;;;;;;;;;5.15;61.99;100092.69;5093130;28;19919;-42
2023/02/03 04:12:47;;;;;;;;;;;;;;;5.15;61.65;100102.41;5093063;28;19914;-42
2023/02/03 04:15:13;;;;;;;;;;;;;;;4.84;61.98;100101.13;5092798;28;19912;-41
2023/02/03 04:17:38;;;;;;;;;;;;;;;4.84;61.89;100111.69;5092907;28;19912;-41
2023/02/03 04:20:04;;;;;;;;;;;;;;;4.65;62.78;100109.28;5092888;28;19926;-41
2023/02/03 04:22:29;;;;;;;;;;;;;;;4.83;62.83;100110.00;5093166;28;19923;-41
2023/02/03 04:24:57;;;;;;;;;;;;;;;4.54;63.38;100110.34;5093021;28;19916;-42
2023/02/03 04:27:23;;;;;;;;;;;;;;;4.84;62.87;100108.22;5092930;28;19912;-42
2023/02/03 04:29:49;;;;;;;;;;;;;;;4.94;62.34;100106.28;5092820;28;20301;-42
2023/02/03 04:32:15;;;;;;;;;;;;;;;4.49;63.59;100102.06;5093176;28;19944;-42
2023/02/03 04:34:40;;;;;;;;;;;;;;;4.85;63.51;100105.41;5092840;28;19955;-42
2023/02/03 04:37:05;;;;;;;;;;;;;;;5.24;61.82;100098.81;5092550;28;20139;-42
2023/02/03 04:39:30;;;;;;;;;;;;;;;5.37;61.40;100093.91;5093003;28;20367;-42
2023/02/03 04:41:56;;;;;;;;;;;;;;;4.78;62.64;100083.31;5074897;28;20348;-42
2023/02/03 04:44:21;;;;;;;;;;;;;;;4.65;63.45;100075.00;5084219;28;19981;-41
2023/02/03 04:46:46;;;;;;;;;;;;;;;4.40;63.59;100082.78;5092105;28;19928;-42
2023/02/03 04:49:11;;;;;;;;;;;;;;;4.74;63.36;100086.41;5092136;28;20006;-41
2023/02/03 04:51:37;;;;;;;;;;;;;;;4.55;63.45;100085.66;5091268;28;19920;-42
2023/02/03 04:54:02;;;;;;;;;;;;;;;4.84;62.92;100081.84;5092118;28;19912;-42
2023/02/03 04:56:27;;;;;;;;;;;;;;;5.19;61.80;100087.91;5091885;28;19972;-42
2023/02/03 04:58:53;;;;;;;;;;;;;;;4.71;63.09;100092.81;5091529;28;20237;-42
2023/02/03 05:01:18;;;;;;;;;;;;;;;4.83;63.65;100104.75;5092471;28;19936;-41
2023/02/03 05:03:43;;;;;;;;;;;;;;;4.88;62.35;100102.47;5092180;28;20277;-42
2023/02/03 05:06:09;;;;;;;;;;;;;;;5.82;68.82;100105.84;5092427;28;19912;-42
2023/02/03 05:08:34;;;;;;;;;;;;;;;5.88;64.57;100099.09;5091729;28;19920;-41
2023/02/03 05:10:59;;;;;;;;;;;;;;;5.89;61.74;100098.13;5092123;28;20337;-47
2023/02/03 05:13:25;;;;;;;;;;;;;;;6.85;63.11;100099.16;5092054;28;19912;-42
2023/02/03 05:15:50;;;;;;;;;;;;;;;7.53;63.62;100107.47;5092068;28;20384;-42
2023/02/03 05:18:15;;;;;;;;;;;;;;;7.83;54.06;100103.97;5091977;28;19919;-42
2023/02/03 05:20:40;;;;;;;;;;;;;;;8.37;53.67;100102.19;5091790;28;20419;-42
2023/02/03 05:23:06;;;;;;;;;;;;;;;7.52;58.53;100101.38;5092003;28;19926;-42
2023/02/03 05:25:31;;;;;;;;;;;;;;;7.51;54.62;100109.47;5091496;28;19981;-42
2023/02/03 05:27:56;;;;;;;;;;;;;;;8.05;55.96;100117.38;5091951;28;19999;-42
2023/02/03 05:30:21;;;;;;;;;;;;;;;7.09;53.72;100124.72;5091659;28;19913;-42
2023/02/03 05:32:47;;;;;;;;;;;;;;;6.28;56.81;100125.72;5091536;28;19923;-42
2023/02/03 05:35:13;;;;;;;;;;;;;;;6.56;55.71;100127.00;5091309;28;19920;-41
2023/02/03 05:37:38;;;;;;;;;;;;;;;5.88;57.20;100130.78;5091631;28;19919;-42
2023/02/03 05:42:48;;;;;;;;;;;;;;;4.42;62.52;100130.88;5090698;28;19961;-41
2023/02/03 05:45:13;;;;;;;;;;;;;;;4.49;62.52;100129.28;5071560;28;19921;-42
2023/02/03 05:47:39;;;;;;;;;;;;;;;5.22;60.29;100122.72;5070719;28;19913;-42
2023/02/03 05:50:04;;;;;;;;;;;;;;;4.35;62.70;100126.38;5082442;28;20228;-42
2023/02/03 05:52:29;;;;;;;;;;;;;;;4.54;62.25;100131.44;5090532;28;20378;-41
2023/02/03 05:54:55;;;;;;;;;;;;;;;4.65;61.95;100135.63;5090029;28;19912;-42
2023/02/03 05:57:20;;;;;;;;;;;;;;;4.36;62.61;100133.28;5089866;28;20049;-43
2023/02/03 05:59:45;;;;;;;;;;;;;;;4.81;61.23;100138.34;5089943;28;19912;-42
2023/02/03 06:02:10;;;;;;;;;;;;;;;4.19;62.25;100137.59;5101456;28;20006;-41
2023/02/03 06:04:36;;;;;;;;;;;;;;;4.47;62.52;100154.13;5090886;28;19921;-43
2023/02/03 06:07:01;;;;;;;;;;;;;;;4.55;61.65;100159.47;5087961;28;19963;-43
2023/02/03 06:09:26;;;;;;;;;;;;;;;4.78;60.88;100169.47;5090908;28;19916;-43
2023/02/03 06:11:52;;;;;;;;;;;;;;;5.48;58.83;100171.97;5091074;28;19912;-41
2023/02/03 06:14:17;;;;;;;;;;;;;;;5.34;58.46;100170.78;5090371;28;19912;-43
2023/02/03 06:16:42;;;;;;;;;;;;;;;4.88;59.58;100183.41;5090463;28;20341;-43
2023/02/03 06:19:07;;;;;;;;;;;;;;;5.02;58.89;100188.09;5089899;28;19916;-43
2023/02/03 06:21:33;;;;;;;;;;;;;;;5.66;57.73;100190.34;5090683;28;20004;-43
2023/02/03 06:23:58;;;;;;;;;;;;;;;5.82;57.07;100193.03;5090187;28;19916;-41
2023/02/03 06:26:24;;;;;;;;;;;;;;;6.15;55.65;100201.06;5090224;28;19919;-41
2023/02/03 06:28:50;;;;;;;;;;;;;;;6.17;54.74;100204.38;5088580;28;20034;-41
2023/02/03 06:31:15;;;;;;;;;;;;;;;6.57;54.86;100204.56;5088931;28;19981;-41
2023/02/03 06:33:40;;;;;;;;;;;;;;;6.41;55.06;100205.34;5088733;28;19980;-43
2023/02/03 06:36:05;;;;;;;;;;;;;;;5.96;54.85;100211.91;5088783;28;20116;-42
2023/02/03 06:38:31;;;;;;;;;;;;;;;5.99;54.92;100206.31;5088474;28;20022;-41
2023/02/03 06:40:56;;;;;;;;;;;;;;;6.00;54.55;100213.25;5088521;28;19924;-41
2023/02/03 06:43:21;;;;;;;;;;;;;;;6.04;54.10;100220.69;5089755;28;19912;-42
2023/02/03 06:45:47;;;;;;;;;;;;;;;5.81;55.09;100220.44;5106029;28;20407;-42
2023/02/03 06:48:13;;;;;;;;;;;;;;;6.09;54.68;100222.81;5110896;28;19927;-43
2023/02/03 06:50:38;;;;;;;;;;;;;;;6.32;53.83;100236.28;5110456;28;20370;-41
2023/02/03 06:53:03;;;;;;;;;;;;;;;6.57;53.19;100241.56;5110779;28;20010;-42
2023/02/03 06:55:28;;;;;;;;;;;;;;;6.13;54.16;100241.84;5110710;28;20311;-42
2023/02/03 06:57:54;;;;;;;;;;;;;;;5.96;54.45;100230.41;5110173;28;19912;-42
2023/02/03 07:00:20;;;;;;;;;;;;;;;5.88;54.56;100239.09;5110229;28;19912;-42
2023/02/03 07:02:51;;;;;;;;;;;;;;;6.33;53.49;100239.72;5110635;28;19969;-42
2023/02/03 07:05:16;;;;;;;;;;;;;;;6.06;53.80;100233.75;5110530;28;19920;-41
2023/02/03 07:07:42;;;;;;;;;;;;;;;5.48;55.79;100233.53;5110196;28;20296;-41
2023/02/03 07:10:07;;;;;;;;;;;;;;;5.48;55.72;100233.53;5110562;28;20268;-42
2023/02/03 07:12:33;;;;;;;;;;;;;;;5.95;55.01;100231.38;5110833;28;20015;-42
2023/02/03 07:14:58;;;;;;;;;;;;;;;6.58;53.39;100240.56;5110395;28;19973;-42
2023/02/03 07:17:23;;;;;;;;;;;;;;;6.81;52.83;100238.88;5110350;28;19986;-42
2023/02/03 07:19:48;;;;;;;;;;;;;;;6.71;52.86;100232.13;5110200;28;19920;-42
2023/02/03 07:22:14;;;;;;;;;;;;;;;7.05;52.46;100224.81;5111658;28;19915;-42
2023/02/03 07:24:39;;;;;;;;;;;;;;;7.49;51.08;100217.41;5113651;28;19915;-42
2023/02/03 07:27:04;;;;;;;;;;;;;;;7.10;51.71;100232.25;5113968;28;20026;-41
2023/02/03 07:29:30;;;;;;;;;;;;;;;6.80;52.55;100236.44;5113796;28;19926;-42
2023/02/03 07:31:55;;;;;;;;;;;;;;;6.84;52.09;100241.22;5113823;28;19994;-42
2023/02/03 07:34:21;;;;;;;;;;;;;;;6.63;52.87;100246.19;5112342;28;20303;-42
2023/02/03 07:36:46;;;;;;;;;;;;;;;6.42;53.39;100244.84;5114277;28;19923;-43
2023/02/03 07:39:11;;;;;;;;;;;;;;;6.28;53.91;100242.84;5113822;28;20402;-42
2023/02/03 07:41:37;;;;;;;;;;;;;;;6.39;54.35;100252.28;5113629;28;19911;-41
2023/02/03 07:44:02;;;;;;;;;;;;;;;6.87;53.64;100258.56;5094489;28;20335;-42
2023/02/03 07:46:28;;;;;;;;;;;;;;;6.96;52.60;100246.16;5072890;28;19978;-41
2023/02/03 07:48:53;;;;;;;;;;;;;;;7.19;51.51;100246.28;5086763;28;19919;-42
2023/02/03 07:51:18;;;;;;;;;;;;;;;6.90;53.24;100258.25;5114297;28;19911;-42
2023/02/03 07:53:44;;;;;;;;;;;;;;;7.07;52.67;100279.41;5113044;28;19969;-42
2023/02/03 07:56:10;;;;;;;;;;;;;;;7.82;51.05;100269.25;5113122;28;20006;-43
2023/02/03 07:58:36;;;;;;;;;;;;;;;7.65;50.93;100272.94;5113068;28;19923;-41
2023/02/03 08:01:08;;;;;;;;;;;;;;;7.96;50.14;100269.53;5112952;28;20390;-43
2023/02/03 08:03:33;;;;;;;;;;;;;;;7.71;50.67;100277.59;5102199;28;20352;-41
2023/02/03 08:05:59;;;;;;;;;;;;;;;8.67;49.19;100262.28;5095045;28;20372;-42
2023/02/03 08:08:24;;;;;;;;;;;;;;;9.07;47.76;100267.41;5106137;28;19998;-42
2023/02/03 08:10:49;;;;;;;;;;;;;;;9.37;47.39;100271.75;5111245;28;19976;-42
2023/02/03 08:13:14;;;;;;;;;;;;;;;8.99;47.95;100266.50;5097496;28;20015;-42
2023/02/03 08:15:40;;;;;;;;;;;;;;;9.82;45.85;100265.59;5092972;28;20022;-42
2023/02/03 08:18:07;;;;;;;;;;;;;;;9.97;45.77;100275.16;5103204;28;19934;-42
2023/02/03 08:20:32;;;;;;;;;;;;;;;9.84;45.35;100266.22;5113058;28;20558;-41
2023/02/03 08:22:58;;;;;;;;;;;;;;;9.85;45.35;100274.00;5112635;28;19955;-41
2023/02/03 08:25:23;;;;;;;;;;;;;;;9.84;44.74;100272.34;5096405;28;19916;-41
2023/02/03 08:27:48;;;;;;;;;;;;;;;10.30;44.67;100274.78;5088281;28;19940;-41
2023/02/03 08:30:14;;;;;;;;;;;;;;;9.53;44.67;100272.56;5081456;28;19916;-42
2023/02/03 08:32:39;;;;;;;;;;;;;;;9.23;44.88;100277.88;5082527;28;19912;-41
2023/02/03 08:35:05;;;;;;;;;;;;;;;9.24;45.04;100274.22;5081265;28;19912;-42
2023/02/03 08:37:31;;;;;;;;;;;;;;;9.17;44.83;100270.63;5079213;28;19920;-41
2023/02/03 08:39:56;;;;;;;;;;;;;;;9.80;44.85;100263.09;5089608;28;20016;-42
2023/02/03 08:42:22;;;;;;;;;;;;;;;10.13;43.81;100268.81;5091711;28;20402;-42
2023/02/03 08:44:48;;;;;;;;;;;;;;;9.68;44.29;100269.91;5091312;28;20291;-42
2023/02/03 08:47:13;;;;;;;;;;;;;;;9.67;43.89;100278.88;5091548;28;19947;-44
2023/02/03 08:49:38;;;;;;;;;;;;;;;9.72;44.27;100285.28;5091961;28;20000;-42
2023/02/03 08:52:04;;;;;;;;;;;;;;;10.40;42.96;100289.59;5091752;28;20007;-42
2023/02/03 08:54:29;;;;;;;;;;;;;;;10.73;41.70;100295.25;5091451;28;19951;-42
2023/02/03 08:56:55;;;;;;;;;;;;;;;10.46;42.56;100292.31;5091362;28;20329;-42
2023/02/03 08:59:20;;;;;;;;;;;;;;;10.88;41.88;100287.19;5091378;28;19912;-42
2023/02/03 09:01:47;;;;;;;;;;;;;;;11.81;39.72;100302.97;5091434;28;20392;-42
2023/02/03 09:04:12;;;;;;;;;;;;;;;11.51;40.02;100289.88;5091155;28;19920;-42
2023/02/03 09:06:38;;;;;;;;;;;;;;;12.10;38.80;100297.38;5091354;28;19919;-42
2023/02/03 09:09:04;;;;;;;;;;;;;;;11.23;38.66;100293.41;5091149;28;20382;-43
2023/02/03 09:11:29;;;;;;;;;;;;;;;10.92;39.16;100289.25;5091623;28;19919;-43
2023/02/03 09:13:56;;;;;;;;;;;;;;;10.88;39.00;100295.16;5090915;28;20360;-40
2023/02/03 09:16:22;;;;;;;;;;;;;;;10.68;40.18;100300.31;5089139;28;20344;-41
2023/02/03 09:18:48;;;;;;;;;;;;;;;10.82;40.16;100298.59;5090491;28;19920;-42
2023/02/03 09:21:17;;;;;;;;;;;;;;;11.59;38.47;100303.03;5090387;28;19932;-42
2023/02/03 09:23:42;;;;;;;;;;;;;;;11.81;38.62;100289.63;5090804;28;19916;-42
2023/02/03 09:26:09;;;;;;;;;;;;;;;11.06;38.54;100284.03;5091344;28;19999;-42
2023/02/03 09:28:34;;;;;;;;;;;;;;;11.09;38.85;100284.47;5091089;28;20045;-42
2023/02/03 09:31:00;;;;;;;;;;;;;;;11.41;38.75;100284.09;5090309;28;20398;-42
2023/02/03 09:33:26;;;;;;;;;;;;;;;11.40;37.84;100291.25;5091328;28;20272;-43
2023/02/03 09:35:52;;;;;;;;;;;;;;;11.41;37.07;100287.56;5091388;28;20367;-41
2023/02/03 09:38:17;;;;;;;;;;;;;;;11.49;36.88;100278.59;5090433;28;19916;-41
2023/02/03 09:40:43;;;;;;;;;;;;;;;12.04;36.50;100282.16;5090793;28;19919;-43
2023/02/03 09:43:23;;;;;;;;;;;;;;;11.51;35.95;100273.88;5090647;28;19912;-43
2023/02/03 09:45:49;;;;;;;;;;;;;;;10.69;37.70;100259.38;5090617;28;20444;-42
2023/02/03 09:48:22;;;;;;;;;;;;;;;11.35;37.95;100257.19;5091090;28;19912;-43
2023/02/03 09:50:49;;;;;;;;;;;;;;;11.70;37.45;100248.34;5090649;28;19928;-43
2023/02/03 09:53:34;;;;;;;;;;;;;;;11.47;36.09;100261.97;5090424;28;20022;-41
2023/02/03 09:55:59;;;;;;;;;;;;;;;10.80;36.01;100258.84;5088634;28;20023;-42
2023/02/03 09:58:27;;;;;;;;;;;;;;;10.64;37.48;100265.28;5089766;28;20007;-42
2023/02/03 10:00:57;;;;;;;;;;;;;;;10.92;35.41;100267.13;5089976;28;19924;-42
2023/02/03 10:03:37;;;;;;;;;;;;;;;11.45;35.89;100266.69;5074415;28;19912;-41
2023/02/03 10:06:08;;;;;;;;;;;;;;;11.22;35.99;100265.09;5090287;28;19927;-42
2023/02/03 10:08:39;;;;;;;;;;;;;;;10.76;36.64;100269.06;5088615;28;20361;-43
2023/02/03 10:11:11;;;;;;;;;;;;;;;10.57;37.24;100273.19;5090215;28;20412;-42
2023/02/03 10:13:48;;;;;;;;;;;;;;;10.76;36.59;100270.91;5090060;28;20028;-42
2023/02/03 10:16:26;;;;;;;;;;;;;;;10.79;37.00;100273.16;5089811;28;19923;-41
2023/02/03 10:18:53;;;;;;;;;;;;;;;10.85;36.79;100268.91;5088886;28;19954;-43
2023/02/03 10:21:28;;;;;;;;;;;;;;;10.73;37.05;100265.97;5090032;28;20073;-43
2023/02/03 10:23:56;;;;;;;;;;;;;;;10.49;37.71;100264.50;5090540;28;19912;-43
2023/02/03 10:26:24;;;;;;;;;;;;;;;11.06;37.54;100268.91;5090483;28;20119;-44
2023/02/03 10:28:57;;;;;;;;;;;;;;;10.96;37.28;100268.41;5090608;28;19912;-43
2023/02/03 10:31:26;;;;;;;;;;;;;;;11.70;36.66;100270.50;5090684;28;20324;-43
2023/02/03 10:34:07;;;;;;;;;;;;;;;11.69;35.91;100265.34;5089112;28;19912;-43
2023/02/03 10:36:39;;;;;;;;;;;;;;;11.86;35.04;100242.69;5090858;28;19918;-43
2023/02/03 10:39:22;;;;;;;;;;;;;;;11.93;35.12;100245.38;5090700;28;19912;-42
2023/02/03 10:41:48;;;;;;;;;;;;;;;11.49;35.08;100239.44;5090922;28;19916;-44
2023/02/03 10:44:14;;;;;;;;;;;;;;;11.18;35.12;100239.88;5090165;28;19982;-42
2023/02/03 10:46:41;;;;;;;;;;;;;;;11.24;35.41;100239.09;5091067;28;19912;-42
2023/02/03 10:49:07;;;;;;;;;;;;;;;11.66;35.51;100225.78;5089987;28;19966;-43
2023/02/03 10:51:38;;;;;;;;;;;;;;;10.94;35.33;100230.50;5090838;28;19993;-44
2023/02/03 10:54:03;;;;;;;;;;;;;;;10.91;35.12;100249.53;5090245;28;19912;-43
2023/02/03 10:56:31;;;;;;;;;;;;;;;10.97;35.19;100248.75;5087180;28;19916;-42
2023/02/03 10:58:57;;;;;;;;;;;;;;;11.13;34.68;100237.78;5093934;28;20268;-42
2023/02/03 11:01:27;;;;;;;;;;;;;;;11.77;34.61;100240.41;5094505;28;19962;-41
2023/02/03 11:03:54;;;;;;;;;;;;;;;12.20;33.81;100232.13;5093673;28;19912;-42
2023/02/03 11:06:19;;;;;;;;;;;;;;;11.48;33.86;100235.13;5094173;28;20332;-42
2023/02/03 11:08:47;;;;;;;;;;;;;;;11.70;34.54;100230.50;5094084;28;19912;-42
2023/02/03 11:11:14;;;;;;;;;;;;;;;11.33;34.85;100223.78;5094384;28;20011;-42
2023/02/03 11:13:39;;;;;;;;;;;;;;;11.38;35.15;100233.84;5094458;28;19919;-43
2023/02/03 11:16:15;;;;;;;;;;;;;;;11.50;35.13;100233.09;5083694;28;19916;-42
2023/02/03 11:18:45;;;;;;;;;;;;;;;11.17;35.74;100227.56;5080522;28;19986;-43
2023/02/03 11:21:30;;;;;;;;;;;;;;;11.44;35.04;100233.03;5080795;28;19924;-42
2023/02/03 11:23:55;;;;;;;;;;;;;;;11.51;34.43;100240.06;5085079;28;20288;-43
2023/02/03 11:26:33;;;;;;;;;;;;;;;11.61;34.12;100229.03;5084377;28;19927;-41
2023/02/03 11:29:00;;;;;;;;;;;;;;;12.27;33.94;100230.31;5081911;28;20023;-42
2023/02/03 11:31:27;;;;;;;;;;;;;;;11.71;34.33;100237.50;5080157;28;20388;-41
2023/02/03 11:33:57;;;;;;;;;;;;;;;11.65;33.76;100229.47;5085136;28;20307;-42
2023/02/03 11:36:25;;;;;;;;;;;;;;;11.28;34.81;100227.03;5090583;28;19916;-40
2023/02/03 11:38:50;;;;;;;;;;;;;;;11.79;34.24;100225.03;5089239;28;19916;-42
2023/02/03 11:41:17;;;;;;;;;;;;;;;11.72;33.85;100220.47;5084113;28;19924;-41
2023/02/03 11:43:43;;;;;;;;;;;;;;;10.81;34.31;100217.91;5088804;28;20034;-41
2023/02/03 11:46:09;;;;;;;;;;;;;;;11.28;33.62;100215.56;5092880;28;20061;-43
2023/02/03 11:48:36;;;;;;;;;;;;;;;10.94;34.29;100199.34;5080922;28;20046;-42
2023/02/03 11:51:19;;;;;;;;;;;;;;;11.43;34.20;100204.78;5083903;28;19912;-41
2023/02/03 11:54:03;;;;;;;;;;;;;;;11.60;32.63;100195.41;5081784;28;19916;-42
2023/02/03 11:56:28;;;;;;;;;;;;;;;11.57;32.86;100184.31;5082318;28;20057;-41
2023/02/03 11:59:06;;;;;;;;;;;;;;;11.58;32.74;100183.31;5080979;28;20318;-41
2023/02/03 12:01:50;;;;;;;;;;;;;;;11.60;33.02;100184.75;5083187;28;19916;-42
2023/02/03 12:04:18;;;;;;;;;;;;;;;11.33;33.64;100167.84;5083004;28;19969;-41
2023/02/03 12:06:49;;;;;;;;;;;;;;;12.06;32.08;100159.25;5081167;28;20003;-42
2023/02/03 12:09:21;;;;;;;;;;;;;;;11.99;31.75;100159.22;5081157;28;19971;-42
2023/02/03 12:12:00;;;;;;;;;;;;;;;12.09;32.27;100157.00;5082483;28;19916;-43
2023/02/03 12:14:41;;;;;;;;;;;;;;;11.55;32.65;100157.84;5081899;28;19912;-42
2023/02/03 12:17:25;;;;;;;;;;;;;;;11.66;32.46;100161.81;5081580;28;19913;-43
2023/02/03 12:19:53;;;;;;;;;;;;;;;12.37;31.77;100157.84;5081893;28;19932;-43
2023/02/03 12:22:18;;;;;;;;;;;;;;;11.64;32.42;100147.84;5081272;28;19924;-43
2023/02/03 12:24:52;;;;;;;;;;;;;;;11.51;32.56;100159.28;5082794;28;19916;-42
2023/02/03 12:27:41;;;;;;;;;;;;;;;11.88;32.56;100149.97;5082793;28;19981;-42
2023/02/03 12:30:13;;;;;;;;;;;;;;;11.60;32.32;100158.09;5077522;28;19912;-41
2023/02/03 12:32:47;;;;;;;;;;;;;;;11.09;32.27;100153.16;5082594;28;20004;-41
2023/02/03 12:35:16;;;;;;;;;;;;;;;10.98;32.59;100159.03;5081897;28;19959;-42
2023/02/03 12:38:04;;;;;;;;;;;;;;;11.09;32.98;100147.81;5079845;28;19912;-42
2023/02/03 12:40:32;;;;;;;;;;;;;;;11.37;32.43;100155.75;5086986;28;19912;-42
2023/02/03 12:43:02;;;;;;;;;;;;;;;10.92;32.63;100147.31;5090922;28;19920;-43
2023/02/03 12:45:28;;;;;;;;;;;;;;;11.12;32.34;100150.09;5071188;28;20403;-42
2023/02/03 12:47:57;;;;;;;;;;;;;;;11.16;32.94;100148.69;5071450;28;19919;-42
2023/02/03 12:50:22;;;;;;;;;;;;;;;11.70;31.86;100153.19;5071683;28;19928;-42